Time;durP1;ratioP1;P1;durP2;ratioP2;P2;SDS_P1;SDS_P2;PMS_P1;PMS_P2;Temp;Humidity;BMP_temperature;BMP_pressure;BME280_temperature;BME280_humidity;BME280_pressure;Samples;Min_cycle;Max_cycle;Signal;HPM_P1;HPM_P2
2022/01/02 00:02:16;;;;;;;20.17;10.83;;;;;;;7.30;100.00;99841.03;5110761;28;20221;-69
2022/01/02 00:04:49;;;;;;;19.20;10.73;;;;;;;7.28;100.00;99836.03;5110794;28;20208;-60
2022/01/02 00:07:17;;;;;;;22.67;10.57;;;;;;;7.20;100.00;99835.53;5110762;28;20221;-60
2022/01/02 00:09:47;;;;;;;18.70;10.53;;;;;;;7.25;100.00;99841.25;5110832;28;20233;-69
2022/01/02 00:12:18;;;;;;;21.10;10.03;;;;;;;7.22;100.00;99841.41;5110624;28;20252;-60
2022/01/02 00:14:48;;;;;;;19.23;10.70;;;;;;;7.23;100.00;99845.56;5111268;28;20208;-69
2022/01/02 00:17:21;;;;;;;20.20;10.73;;;;;;;7.22;100.00;99851.56;5114970;28;20633;-60
2022/01/02 00:19:53;;;;;;;21.70;11.20;;;;;;;7.20;100.00;99859.25;5114950;28;20224;-60
2022/01/02 00:22:26;;;;;;;19.73;10.57;;;;;;;7.23;100.00;99858.28;5114540;28;20217;-69
2022/01/02 00:24:54;;;;;;;19.03;10.90;;;;;;;7.19;100.00;99852.53;5114596;27;20205;-69
2022/01/02 00:27:21;;;;;;;21.30;11.80;;;;;;;7.16;100.00;99856.94;5114632;28;20218;-69
2022/01/02 00:29:51;;;;;;;21.70;11.57;;;;;;;7.22;100.00;99854.13;5114599;28;20644;-69
2022/01/02 00:32:19;;;;;;;23.27;11.50;;;;;;;7.19;100.00;99866.97;5114341;28;20289;-60
2022/01/02 00:34:51;;;;;;;20.27;11.60;;;;;;;7.20;100.00;99866.06;5114365;28;20193;-60
2022/01/02 00:37:19;;;;;;;19.70;11.13;;;;;;;7.06;100.00;99860.78;5114402;28;20270;-60
2022/01/02 00:39:46;;;;;;;21.50;11.73;;;;;;;7.00;100.00;99869.50;5114261;28;20205;-61
2022/01/02 00:42:20;;;;;;;22.20;11.53;;;;;;;6.98;100.00;99877.22;5113949;28;20226;-60
2022/01/02 00:44:59;;;;;;;23.07;11.57;;;;;;;7.00;100.00;99877.13;5114654;28;20608;-60
2022/01/02 00:47:32;;;;;;;24.77;12.10;;;;;;;7.08;100.00;99869.19;5114145;28;20255;-60
2022/01/02 00:50:09;;;;;;;23.33;11.40;;;;;;;7.08;100.00;99869.19;5113964;28;20264;-60
2022/01/02 00:52:37;;;;;;;21.97;12.10;;;;;;;7.08;100.00;99864.09;5113841;28;20224;-60
2022/01/02 00:55:08;;;;;;;20.23;11.30;;;;;;;7.10;100.00;99860.59;5113936;28;20201;-68
2022/01/02 00:57:36;;;;;;;20.23;11.37;;;;;;;7.01;100.00;99861.81;5113982;28;20232;-69
2022/01/02 01:00:12;;;;;;;21.47;11.53;;;;;;;7.05;100.00;99861.69;5113812;28;20659;-61
2022/01/02 01:02:46;;;;;;;22.43;11.73;;;;;;;7.01;100.00;99858.44;5113939;28;20205;-60
2022/01/02 01:05:19;;;;;;;24.33;12.83;;;;;;;7.08;100.00;99853.91;5113657;28;20650;-69
2022/01/02 01:07:48;;;;;;;25.60;13.47;;;;;;;7.18;100.00;99850.03;5113941;28;20217;-60
2022/01/02 01:10:15;;;;;;;24.73;12.30;;;;;;;7.18;100.00;99850.03;5113511;28;20237;-60
2022/01/02 01:12:42;;;;;;;25.83;12.63;;;;;;;7.18;100.00;99844.97;5113828;28;20200;-60
2022/01/02 01:15:11;;;;;;;23.47;12.63;;;;;;;7.20;100.00;99838.91;5113777;28;20583;-69
2022/01/02 01:17:38;;;;;;;24.93;13.50;;;;;;;7.17;100.00;99844.13;5113666;28;20654;-69
2022/01/02 01:20:07;;;;;;;25.20;13.17;;;;;;;7.27;100.00;99844.53;5113247;28;20197;-60
2022/01/02 01:22:34;;;;;;;27.03;13.70;;;;;;;7.26;100.00;99835.25;5113245;28;20222;-69
2022/01/02 01:25:00;;;;;;;28.17;14.00;;;;;;;7.30;100.00;99844.41;5113366;28;20216;-60
2022/01/02 01:27:27;;;;;;;32.20;15.47;;;;;;;7.24;100.00;99839.59;5112835;28;20225;-68
2022/01/02 01:29:54;;;;;;;29.00;14.73;;;;;;;7.28;100.00;99840.28;5113062;28;20233;-68
2022/01/02 01:32:22;;;;;;;27.93;13.37;;;;;;;7.24;100.00;99839.59;5113530;28;20244;-60
2022/01/02 01:34:49;;;;;;;28.47;14.93;;;;;;;7.22;100.00;99836.31;5113263;28;20578;-69
2022/01/02 01:37:16;;;;;;;27.53;14.67;;;;;;;7.29;100.00;99837.66;5112993;28;20221;-69
2022/01/02 01:39:42;;;;;;;27.03;14.37;;;;;;;7.24;100.00;99837.03;5112934;28;20205;-69
2022/01/02 01:42:11;;;;;;;27.60;13.97;;;;;;;7.19;100.00;99837.28;5113033;27;20221;-60
2022/01/02 01:45:04;;;;;;;29.50;14.20;;;;;;;7.18;100.00;99842.41;5113159;28;20190;-60
2022/01/02 01:47:32;;;;;;;25.73;13.70;;;;;;;7.25;100.00;99841.25;5113166;28;20842;-69
2022/01/02 01:49:59;;;;;;;26.30;14.83;;;;;;;7.23;100.00;99850.66;5112631;28;20229;-69
2022/01/02 01:52:26;;;;;;;32.37;16.30;;;;;;;7.28;100.00;99846.19;5112762;28;20639;-60
2022/01/02 01:54:52;;;;;;;29.07;15.33;;;;;;;7.35;100.00;99847.53;5112654;28;20197;-61
2022/01/02 01:57:19;;;;;;;27.27;14.93;;;;;;;7.37;100.00;99850.03;5112698;28;20721;-60
2022/01/02 01:59:48;;;;;;;30.27;15.70;;;;;;;7.38;100.00;99852.50;5112532;28;20205;-60
2022/01/02 02:02:16;;;;;;;28.97;15.13;;;;;;;7.41;100.00;99862.53;5112384;28;20249;-69
2022/01/02 02:04:44;;;;;;;27.73;14.87;;;;;;;7.35;100.00;99862.00;5112431;28;20198;-69
2022/01/02 02:07:11;;;;;;;29.40;15.33;;;;;;;7.29;100.00;99858.00;5112449;28;20732;-63
2022/01/02 02:09:54;;;;;;;28.57;15.23;;;;;;;7.30;100.00;99857.13;5112223;28;20233;-60
2022/01/02 02:12:21;;;;;;;29.33;15.00;;;;;;;7.33;100.00;99859.53;5112373;28;20304;-69
2022/01/02 02:14:48;;;;;;;25.83;15.13;;;;;;;7.31;100.00;99868.13;5112292;28;20205;-68
2022/01/02 02:17:14;;;;;;;27.40;14.23;;;;;;;7.31;100.00;99866.41;5112153;27;20229;-68
2022/01/02 02:19:41;;;;;;;28.27;15.43;;;;;;;7.35;100.00;99862.81;5112250;28;20205;-69
2022/01/02 02:22:10;;;;;;;28.67;16.17;;;;;;;7.34;100.00;99870.53;5112275;28;20216;-60
2022/01/02 02:24:37;;;;;;;31.03;16.27;;;;;;;7.38;100.00;99866.94;5112159;28;20205;-69
2022/01/02 02:27:04;;;;;;;27.87;15.07;;;;;;;7.47;100.00;99869.84;5112147;28;20600;-69
2022/01/02 02:29:30;;;;;;;26.40;14.13;;;;;;;7.47;100.00;99876.69;5111929;28;20236;-69
2022/01/02 02:31:57;;;;;;;26.00;14.53;;;;;;;7.48;100.00;99874.06;5111990;27;20243;-69
2022/01/02 02:34:24;;;;;;;27.83;15.60;;;;;;;7.42;100.00;99869.28;5112228;28;20224;-68
2022/01/02 02:36:51;;;;;;;29.37;15.00;;;;;;;7.35;100.00;99870.44;5111954;28;20224;-61
2022/01/02 02:39:19;;;;;;;28.90;15.10;;;;;;;7.36;100.00;99864.47;5111307;28;20193;-60
2022/01/02 02:41:46;;;;;;;30.20;15.57;;;;;;;7.39;100.00;99871.16;5112246;28;20611;-60
2022/01/02 02:44:22;;;;;;;29.77;15.20;;;;;;;7.37;100.00;99873.75;5111651;28;20201;-69
2022/01/02 02:49:33;;;;;;;30.03;15.60;;;;;;;7.40;100.00;99873.59;5112048;28;20224;-61
2022/01/02 02:52:04;;;;;;;27.43;15.40;;;;;;;7.46;100.00;99880.13;5111386;28;20217;-60
2022/01/02 02:54:33;;;;;;;31.47;15.63;;;;;;;7.52;100.00;99884.09;5111571;28;20243;-60
2022/01/02 02:57:01;;;;;;;32.93;16.03;;;;;;;7.52;100.00;99884.09;5111499;28;20213;-69
2022/01/02 02:59:29;;;;;;;31.43;16.37;;;;;;;7.46;100.00;99888.56;5111387;28;20212;-69
2022/01/02 03:01:57;;;;;;;32.77;16.87;;;;;;;7.51;100.00;99892.66;5111437;28;20213;-69
2022/01/02 03:04:24;;;;;;;30.57;15.33;;;;;;;7.43;100.00;99891.25;5111621;28;20310;-60
2022/01/02 03:06:52;;;;;;;29.00;15.43;;;;;;;7.43;100.00;99896.34;5111357;28;20228;-68
2022/01/02 03:09:33;;;;;;;28.33;15.93;;;;;;;7.48;100.00;99884.25;5111539;28;20225;-69
2022/01/02 03:12:01;;;;;;;30.20;14.93;;;;;;;7.54;100.00;99892.50;5111400;28;20217;-60
2022/01/02 03:14:28;;;;;;;27.73;14.20;;;;;;;7.48;100.00;99894.44;5111139;28;20201;-69
2022/01/02 03:16:55;;;;;;;28.10;15.53;;;;;;;7.54;100.00;99898.41;5111232;28;20225;-69
2022/01/02 03:19:22;;;;;;;30.27;15.33;;;;;;;7.56;100.00;99905.97;5111459;28;20197;-69
2022/01/02 03:21:49;;;;;;;26.37;15.03;;;;;;;7.58;100.00;99910.09;5111751;28;20594;-69
2022/01/02 03:24:15;;;;;;;31.40;15.40;;;;;;;7.55;100.00;99917.03;5111129;28;20220;-60
2022/01/02 03:26:42;;;;;;;25.83;14.30;;;;;;;7.52;100.00;99917.19;5111510;28;20221;-68
2022/01/02 03:29:10;;;;;;;26.53;14.03;;;;;;;7.45;100.00;99917.47;5111034;28;20232;-60
2022/01/02 03:31:37;;;;;;;26.23;14.07;;;;;;;7.46;100.00;99913.19;5111167;28;20235;-69
2022/01/02 03:34:04;;;;;;;24.30;13.83;;;;;;;7.40;100.00;99919.41;5110839;28;20208;-60
2022/01/02 03:36:31;;;;;;;25.37;14.57;;;;;;;7.35;100.00;99921.31;5111495;28;20809;-60
2022/01/02 03:38:57;;;;;;;25.77;14.07;;;;;;;7.31;100.00;99924.09;5111124;28;20211;-68
2022/01/02 03:41:24;;;;;;;25.90;14.87;;;;;;;7.33;100.00;99924.81;5111333;28;20221;-69
2022/01/02 03:43:51;;;;;;;25.97;14.70;;;;;;;7.34;100.00;99922.22;5111246;28;20597;-69
2022/01/02 03:46:19;;;;;;;28.40;14.80;;;;;;;7.28;100.00;99922.50;5111213;28;20221;-68
2022/01/02 03:48:46;;;;;;;25.60;13.63;;;;;;;7.30;100.00;99922.41;5111657;28;20204;-69
2022/01/02 03:51:13;;;;;;;26.67;14.97;;;;;;;7.30;100.00;99928.34;5115146;28;20236;-69
2022/01/02 03:53:40;;;;;;;26.47;14.53;;;;;;;7.28;100.00;99927.59;5115179;28;20606;-69
2022/01/02 03:56:06;;;;;;;25.70;13.73;;;;;;;7.25;100.00;99931.09;5114861;28;20243;-61
2022/01/02 03:58:33;;;;;;;23.93;13.57;;;;;;;7.20;100.00;99924.56;5114997;28;20204;-69
2022/01/02 04:01:00;;;;;;;23.50;13.93;;;;;;;7.21;100.00;99931.28;5115086;28;20601;-60
2022/01/02 04:03:28;;;;;;;25.63;14.47;;;;;;;7.21;100.00;99934.69;5115230;28;20200;-60
2022/01/02 04:05:55;;;;;;;29.10;14.67;;;;;;;7.15;100.00;99946.81;5115125;28;20595;-60
2022/01/02 04:08:22;;;;;;;26.80;13.70;;;;;;;7.23;100.00;99944.75;5115184;28;20197;-60
2022/01/02 04:10:48;;;;;;;27.03;14.60;;;;;;;7.22;100.00;99943.13;5114689;28;20237;-69
2022/01/02 04:13:15;;;;;;;24.00;13.43;;;;;;;7.22;100.00;99938.03;5114747;28;20605;-60
2022/01/02 04:15:42;;;;;;;22.73;13.23;;;;;;;7.19;100.00;99943.25;5114653;28;20244;-69
2022/01/02 04:18:09;;;;;;;24.00;13.80;;;;;;;7.18;100.00;99947.50;5114740;28;20204;-61
2022/01/02 04:20:37;;;;;;;22.27;13.03;;;;;;;7.13;100.00;99941.00;5114717;28;20221;-68
2022/01/02 04:23:04;;;;;;;23.67;13.90;;;;;;;7.12;100.00;99941.88;5114541;28;20220;-60
2022/01/02 04:25:31;;;;;;;24.47;13.97;;;;;;;7.02;100.00;99944.81;5114388;28;20224;-60
2022/01/02 04:27:57;;;;;;;27.37;14.90;;;;;;;7.03;100.00;99943.91;5114313;28;20197;-69
2022/01/02 04:30:24;;;;;;;27.40;15.33;;;;;;;6.95;100.00;99940.91;5114519;28;20228;-69
2022/01/02 04:32:52;;;;;;;26.57;14.60;;;;;;;6.89;100.00;99958.94;5114640;28;20801;-69
2022/01/02 04:35:19;;;;;;;28.80;14.50;;;;;;;7.00;100.00;99948.31;5114592;28;20686;-60
2022/01/02 04:37:47;;;;;;;28.13;15.40;;;;;;;7.00;100.00;99951.69;5114298;28;20671;-60
2022/01/02 04:40:14;;;;;;;28.27;14.67;;;;;;;6.91;100.00;99949.53;5114264;28;20236;-69
2022/01/02 04:42:41;;;;;;;35.10;17.80;;;;;;;6.92;100.00;99946.13;5114270;28;20208;-68
2022/01/02 04:45:09;;;;;;;32.77;16.73;;;;;;;7.00;100.00;99944.06;5113809;28;20205;-60
2022/01/02 04:47:36;;;;;;;29.10;15.30;;;;;;;6.97;100.00;99944.19;5114179;28;20228;-69
2022/01/02 04:50:05;;;;;;;27.23;14.90;;;;;;;6.95;100.00;99951.09;5114218;28;20708;-68
2022/01/02 04:52:32;;;;;;;27.93;15.27;;;;;;;6.96;100.00;99951.91;5113921;28;20221;-69
2022/01/02 04:55:00;;;;;;;29.33;16.00;;;;;;;6.92;100.00;99958.84;5113957;28;20197;-60
2022/01/02 04:57:27;;;;;;;30.43;15.93;;;;;;;6.90;100.00;99963.16;5114007;28;20217;-61
2022/01/02 04:59:53;;;;;;;28.80;15.73;;;;;;;6.84;100.00;99967.69;5113693;28;20197;-69
2022/01/02 05:02:20;;;;;;;29.50;15.03;;;;;;;6.83;100.00;99971.91;5113451;28;20595;-69
2022/01/02 05:04:47;;;;;;;27.57;15.03;;;;;;;6.88;100.00;99980.19;5113729;28;20209;-68
2022/01/02 05:07:14;;;;;;;27.30;14.53;;;;;;;6.85;100.00;99980.31;5113578;28;20221;-60
2022/01/02 05:09:41;;;;;;;28.87;15.03;;;;;;;6.80;100.00;99988.13;5113589;28;20664;-60
2022/01/02 05:12:10;;;;;;;30.33;15.37;;;;;;;6.76;100.00;99980.72;5113471;28;20270;-60
2022/01/02 05:14:37;;;;;;;28.03;14.93;;;;;;;6.74;100.00;99973.13;5113746;28;20193;-60
2022/01/02 05:17:04;;;;;;;29.20;15.80;;;;;;;6.70;100.00;99986.06;5113693;28;20303;-59
2022/01/02 05:19:31;;;;;;;33.93;17.40;;;;;;;6.72;100.00;99984.25;5113521;28;20220;-69
2022/01/02 05:21:58;;;;;;;38.93;18.53;;;;;;;6.71;100.00;99982.63;5113668;28;20228;-60
2022/01/02 05:24:25;;;;;;;42.60;20.23;;;;;;;6.57;100.00;99986.56;5113575;28;20199;-61
2022/01/02 05:26:53;;;;;;;41.00;19.50;;;;;;;6.64;100.00;99991.41;5113466;28;20217;-67
2022/01/02 05:29:22;;;;;;;32.73;16.87;;;;;;;6.68;100.00;99991.19;5113513;28;20228;-69
2022/01/02 05:31:49;;;;;;;32.70;16.87;;;;;;;6.71;100.00;99992.78;5113531;28;20240;-59
2022/01/02 05:34:16;;;;;;;31.70;16.47;;;;;;;6.70;100.00;99991.13;5113193;28;20216;-68
2022/01/02 05:36:48;;;;;;;30.43;16.37;;;;;;;6.69;100.00;99994.53;5113414;28;20221;-60
2022/01/02 05:39:15;;;;;;;32.03;15.70;;;;;;;6.66;100.00;99994.69;5112980;28;20212;-60
2022/01/02 05:41:42;;;;;;;31.17;17.07;;;;;;;6.68;100.00;99993.72;5112883;28;20225;-68
2022/01/02 05:44:09;;;;;;;34.07;17.30;;;;;;;6.74;100.00;99990.09;5113081;28;20197;-67
2022/01/02 05:46:37;;;;;;;29.63;16.30;;;;;;;6.72;100.00;99989.34;5112976;28;20262;-68
2022/01/02 05:49:04;;;;;;;32.63;17.50;;;;;;;6.70;100.00;99997.03;5112846;28;20601;-59
2022/01/02 05:51:31;;;;;;;33.87;17.53;;;;;;;6.76;100.00;99998.50;5112619;28;20657;-68
2022/01/02 05:53:58;;;;;;;35.70;17.23;;;;;;;6.80;100.00;100003.38;5112908;28;20197;-59
2022/01/02 05:56:25;;;;;;;35.03;17.53;;;;;;;6.81;100.00;100009.31;5113035;28;20224;-59
2022/01/02 05:58:52;;;;;;;30.43;17.17;;;;;;;6.86;100.00;100004.84;5112945;28;20197;-59
2022/01/02 06:01:18;;;;;;;29.03;15.40;;;;;;;6.83;100.00;100010.03;5112990;28;20213;-68
2022/01/02 06:03:47;;;;;;;31.00;16.50;;;;;;;6.84;100.00;100014.25;5112568;28;20212;-59
2022/01/02 06:06:14;;;;;;;30.33;16.80;;;;;;;6.80;100.00;100022.88;5112542;28;20298;-69
2022/01/02 06:08:41;;;;;;;29.20;16.10;;;;;;;6.79;100.00;100016.16;5112295;28;20202;-67
2022/01/02 06:11:08;;;;;;;30.67;15.27;;;;;;;6.74;100.00;100018.06;5112558;28;20654;-59
2022/01/02 06:13:35;;;;;;;36.03;17.77;;;;;;;6.74;100.00;100023.16;5111577;28;20206;-68
2022/01/02 06:16:02;;;;;;;35.13;16.97;;;;;;;6.75;100.00;100019.72;5112457;28;20651;-60
2022/01/02 06:18:29;;;;;;;30.17;15.83;;;;;;;6.75;100.00;100025.63;5112532;28;20201;-68
2022/01/02 06:20:57;;;;;;;29.60;15.63;;;;;;;6.83;100.00;100022.75;5112513;28;20243;-68
2022/01/02 06:23:24;;;;;;;27.07;14.20;;;;;;;6.92;100.00;100027.47;5112288;28;20198;-68
2022/01/02 06:25:50;;;;;;;28.80;15.00;;;;;;;6.87;100.00;100033.66;5112391;28;20213;-69
2022/01/02 06:28:17;;;;;;;29.10;14.73;;;;;;;6.84;100.00;100047.31;5112223;28;20212;-60
2022/01/02 06:30:44;;;;;;;28.67;14.83;;;;;;;6.88;100.00;100042.91;5112145;28;20237;-69
2022/01/02 06:33:11;;;;;;;27.40;15.03;;;;;;;6.92;100.00;100041.88;5112302;28;20627;-59
2022/01/02 06:35:38;;;;;;;32.03;15.97;;;;;;;7.09;100.00;100043.72;5112208;28;20217;-59
2022/01/02 06:38:14;;;;;;;30.67;16.17;;;;;;;7.07;100.00;100050.56;5111571;28;20200;-59
2022/01/02 06:40:42;;;;;;;30.77;15.63;;;;;;;7.09;100.00;100048.81;5111791;28;20221;-59
2022/01/02 06:43:09;;;;;;;29.17;14.87;;;;;;;7.05;100.00;100054.94;5111689;28;20204;-68
2022/01/02 06:45:36;;;;;;;30.57;15.73;;;;;;;7.15;100.00;100054.44;5111934;28;20608;-60
2022/01/02 06:48:03;;;;;;;32.00;17.00;;;;;;;7.24;100.00;100063.41;5111905;28;20193;-60
2022/01/02 06:50:30;;;;;;;32.13;16.33;;;;;;;7.24;100.00;100079.53;5111667;27;20689;-60
2022/01/02 06:52:57;;;;;;;33.87;17.23;;;;;;;7.30;100.00;100073.34;5111426;28;20709;-68
2022/01/02 06:55:26;;;;;;;28.20;16.40;;;;;;;7.43;100.00;100074.44;5111956;28;20645;-69
2022/01/02 06:57:53;;;;;;;28.93;16.87;;;;;;;7.51;100.00;100070.75;5111684;28;20204;-60
2022/01/02 07:00:20;;;;;;;32.77;17.00;;;;;;;7.62;100.00;100064.31;5111482;28;20666;-69
2022/01/02 07:02:46;;;;;;;33.03;18.17;;;;;;;7.76;100.00;100070.47;5111945;28;20208;-61
2022/01/02 07:05:13;;;;;;;31.90;17.03;;;;;;;7.82;100.00;100076.13;5111346;28;20595;-61
2022/01/02 07:07:42;;;;;;;30.57;16.50;;;;;;;8.00;100.00;100063.44;5111422;28;20205;-61
2022/01/02 07:10:09;;;;;;;31.00;16.97;;;;;;;8.11;100.00;100073.97;5111311;28;20233;-69
2022/01/02 07:12:38;;;;;;;28.43;15.87;;;;;;;8.23;100.00;100073.44;5111375;28;20197;-60
2022/01/02 07:15:06;;;;;;;28.90;15.43;;;;;;;8.30;100.00;100067.13;5111489;28;20243;-69
2022/01/02 07:17:32;;;;;;;23.97;14.40;;;;;;;8.39;100.00;100071.81;5111311;28;20221;-69
2022/01/02 07:19:59;;;;;;;21.87;13.33;;;;;;;8.55;100.00;100076.19;5111187;28;20201;-60
2022/01/02 07:22:26;;;;;;;23.70;12.90;;;;;;;8.68;100.00;100082.34;5111063;28;20225;-60
2022/01/02 07:24:53;;;;;;;23.87;13.27;;;;;;;8.68;100.00;100079.78;5111049;28;20193;-60
2022/01/02 07:27:20;;;;;;;22.70;12.70;;;;;;;8.80;100.00;100086.84;5111249;28;20224;-60
2022/01/02 07:29:49;;;;;;;21.70;12.63;;;;;;;8.96;100.00;100086.94;5111431;28;20193;-69
2022/01/02 07:32:16;;;;;;;22.33;12.90;;;;;;;9.09;100.00;100093.97;5110930;28;20251;-68
2022/01/02 07:34:43;;;;;;;24.03;14.13;;;;;;;9.19;100.00;100088.34;5111173;28;20205;-69
2022/01/02 07:37:10;;;;;;;20.20;12.57;;;;;;;9.24;100.00;100091.47;5110967;28;20745;-69
2022/01/02 07:39:37;;;;;;;24.10;12.33;;;;;;;9.24;100.00;100091.47;5111211;28;20560;-69
2022/01/02 07:42:05;;;;;;;19.87;12.20;;;;;;;9.27;100.00;100081.09;5111009;28;20224;-69
2022/01/02 07:44:32;;;;;;;20.13;12.27;;;;;;;9.35;100.00;100077.34;5110856;28;20204;-69
2022/01/02 07:47:00;;;;;;;20.57;12.17;;;;;;;9.48;100.00;100075.78;5111037;28;20606;-60
2022/01/02 07:49:27;;;;;;;18.60;11.80;;;;;;;9.37;100.00;100076.38;5110932;28;20193;-60
2022/01/02 07:51:54;;;;;;;19.53;11.93;;;;;;;9.35;100.00;100082.44;5110850;28;20233;-60
2022/01/02 07:54:21;;;;;;;16.57;11.07;;;;;;;9.51;100.00;100083.28;5110965;28;20204;-60
2022/01/02 07:56:47;;;;;;;18.80;11.90;;;;;;;9.50;100.00;100081.66;5111325;28;20605;-60
2022/01/02 07:59:14;;;;;;;21.17;11.97;;;;;;;9.46;100.00;100085.28;5110807;28;20254;-61
2022/01/02 08:01:41;;;;;;;17.60;11.67;;;;;;;9.61;100.00;100084.47;5110772;28;20236;-69
2022/01/02 08:04:09;;;;;;;19.13;11.53;;;;;;;9.79;100.00;100081.84;5110662;28;20213;-68
2022/01/02 08:06:36;;;;;;;18.93;11.20;;;;;;;9.96;100.00;100089.44;5110858;28;20225;-69
2022/01/02 08:09:03;;;;;;;18.90;11.03;;;;;;;9.95;100.00;100093.75;5110872;28;20596;-68
2022/01/02 08:11:30;;;;;;;21.07;11.93;;;;;;;10.09;99.49;100100.63;5110687;28;20233;-68
2022/01/02 08:13:57;;;;;;;19.00;10.77;;;;;;;10.12;99.42;100100.50;5110571;28;20219;-60
2022/01/02 08:16:24;;;;;;;17.20;10.90;;;;;;;10.26;98.55;100106.56;5111001;28;20603;-69
2022/01/02 08:18:51;;;;;;;19.33;11.47;;;;;;;10.34;98.25;100099.34;5110713;28;20208;-61
2022/01/02 08:21:19;;;;;;;16.87;10.90;;;;;;;10.47;98.42;100095.22;5110449;28;20221;-68
2022/01/02 08:23:46;;;;;;;16.47;10.57;;;;;;;10.68;97.09;100092.38;5110488;28;20198;-60
2022/01/02 08:26:13;;;;;;;18.73;11.00;;;;;;;10.76;96.40;100096.16;5110746;28;20221;-60
2022/01/02 08:28:39;;;;;;;17.80;10.70;;;;;;;10.71;95.38;100097.31;5110597;28;20189;-60
2022/01/02 08:31:06;;;;;;;15.07;10.20;;;;;;;10.71;96.07;100097.31;5110572;28;20233;-61
2022/01/02 08:33:33;;;;;;;18.10;10.33;;;;;;;10.98;95.78;100100.03;5110895;28;20204;-69
2022/01/02 08:36:00;;;;;;;15.53;9.67;;;;;;;11.01;94.36;100100.66;5111386;28;20220;-69
2022/01/02 08:38:30;;;;;;;16.57;10.20;;;;;;;10.94;94.56;100101.09;5114270;28;20205;-69
2022/01/02 08:40:57;;;;;;;17.13;10.20;;;;;;;10.96;95.71;100101.84;5114470;28;20235;-69
2022/01/02 08:43:23;;;;;;;16.70;10.13;;;;;;;11.15;94.06;100091.38;5114172;28;20198;-60
2022/01/02 08:45:50;;;;;;;15.03;9.83;;;;;;;11.17;93.75;100089.53;5114231;28;20229;-60
2022/01/02 08:48:17;;;;;;;15.43;10.07;;;;;;;11.47;93.50;100092.03;5114233;28;20212;-69
2022/01/02 08:50:44;;;;;;;16.97;10.07;;;;;;;11.67;92.43;100088.25;5113754;28;20599;-60
2022/01/02 08:53:11;;;;;;;15.20;9.87;;;;;;;11.94;91.59;100090.91;5113879;28;20201;-69
2022/01/02 08:55:39;;;;;;;15.93;9.50;;;;;;;11.99;90.59;100094.81;5113749;28;20224;-69
2022/01/02 08:58:08;;;;;;;13.70;8.87;;;;;;;11.85;91.28;100089.72;5113797;27;20197;-68
2022/01/02 09:00:36;;;;;;;13.50;9.47;;;;;;;11.90;89.60;100095.41;5114019;28;20252;-69
2022/01/02 09:03:03;;;;;;;16.10;10.03;;;;;;;11.91;91.53;100089.34;5114000;28;20204;-69
2022/01/02 09:05:30;;;;;;;15.73;9.80;;;;;;;12.13;90.44;100095.69;5113791;28;20572;-69
2022/01/02 09:07:57;;;;;;;13.80;8.93;;;;;;;12.11;90.33;100093.25;5113506;28;20201;-60
2022/01/02 09:10:24;;;;;;;14.77;9.17;;;;;;;11.95;89.61;100087.41;5113657;28;20569;-60
2022/01/02 09:12:52;;;;;;;14.17;9.20;;;;;;;11.82;90.88;100087.31;5113815;28;20317;-61
2022/01/02 09:15:19;;;;;;;16.93;9.30;;;;;;;11.91;90.45;100081.66;5113671;28;20631;-61
2022/01/02 09:17:46;;;;;;;13.53;9.00;;;;;;;12.17;89.80;100084.34;5113566;28;20201;-70
2022/01/02 09:20:14;;;;;;;14.57;8.93;;;;;;;12.18;89.50;100083.41;5113661;28;20197;-69
2022/01/02 09:22:41;;;;;;;11.93;8.30;;;;;;;12.15;88.89;100073.34;5113600;28;20196;-70
2022/01/02 09:25:09;;;;;;;16.47;10.13;;;;;;;12.29;89.23;100070.75;5113461;28;20288;-61
2022/01/02 09:27:37;;;;;;;13.20;8.70;;;;;;;12.45;88.47;100061.16;5113315;28;20623;-69
2022/01/02 09:30:07;;;;;;;14.23;8.87;;;;;;;12.63;87.38;100063.47;5113198;28;20208;-69
2022/01/02 09:32:34;;;;;;;13.10;8.97;;;;;;;13.17;86.40;100068.41;5113309;28;20244;-61
2022/01/02 09:35:01;;;;;;;14.13;9.70;;;;;;;13.61;84.88;100071.47;5113316;28;20225;-61
2022/01/02 09:37:28;;;;;;;13.23;9.83;;;;;;;14.06;83.10;100057.16;5113347;28;20252;-61
2022/01/02 09:39:55;;;;;;;16.03;10.40;;;;;;;14.47;81.84;100055.94;5113075;28;20569;-70
2022/01/02 09:42:22;;;;;;;14.27;9.30;;;;;;;14.82;80.00;100065.41;5113480;28;20667;-69
2022/01/02 09:44:49;;;;;;;12.93;8.73;;;;;;;14.87;77.56;100048.69;5113188;28;20201;-61
2022/01/02 09:47:21;;;;;;;14.60;8.47;;;;;;;14.95;78.34;100045.53;5112740;28;20224;-69
2022/01/02 09:49:48;;;;;;;13.47;8.40;;;;;;;14.63;78.25;100035.06;5113109;28;20232;-68
2022/01/02 09:52:16;;;;;;;12.70;8.67;;;;;;;15.01;78.38;100034.78;5112582;28;20244;-69
2022/01/02 09:54:44;;;;;;;13.83;9.50;;;;;;;15.06;76.91;100030.09;5112672;28;20250;-69
2022/01/02 09:57:11;;;;;;;16.77;10.57;;;;;;;15.06;76.81;100027.50;5112630;28;20229;-69
2022/01/02 09:59:38;;;;;;;12.10;8.43;;;;;;;15.00;76.49;100034.88;5112676;28;20193;-69
2022/01/02 10:02:05;;;;;;;11.17;8.07;;;;;;;15.02;77.63;100033.84;5112600;28;20217;-69
2022/01/02 10:04:35;;;;;;;10.83;7.77;;;;;;;15.26;76.96;100044.03;5112470;28;20202;-69
2022/01/02 10:07:03;;;;;;;11.90;7.57;;;;;;;15.14;75.49;100045.78;5112371;28;20655;-61
2022/01/02 10:09:32;;;;;;;11.27;7.87;;;;;;;15.03;76.15;100038.03;5112787;28;20590;-60
2022/01/02 10:12:20;;;;;;;15.20;9.60;;;;;;;15.19;77.79;100036.91;5112497;28;20237;-69
2022/01/02 10:14:47;;;;;;;14.03;8.33;;;;;;;15.07;76.93;100033.50;5112810;27;20201;-60
2022/01/02 10:17:14;;;;;;;11.40;7.50;;;;;;;15.23;75.35;100035.72;5112313;28;20222;-61
2022/01/02 10:19:43;;;;;;;11.20;7.60;;;;;;;15.33;75.30;100040.06;5112119;28;20202;-69
2022/01/02 10:22:10;;;;;;;10.43;7.13;;;;;;;15.17;74.88;100037.81;5112158;28;20221;-60
2022/01/02 10:24:40;;;;;;;13.40;8.57;;;;;;;15.02;74.99;100040.75;5112235;28;20201;-69
2022/01/02 10:27:12;;;;;;;10.40;7.57;;;;;;;15.42;74.67;100032.53;5112389;28;20218;-66
2022/01/02 10:29:42;;;;;;;16.43;8.80;;;;;;;15.31;75.27;100039.34;5112072;28;20191;-61
2022/01/02 10:32:28;;;;;;;14.93;9.17;;;;;;;15.67;74.70;100026.31;5111944;28;20233;-70
2022/01/02 10:35:10;;;;;;;16.67;9.23;;;;;;;15.84;74.44;100029.22;5102420;28;20208;-61
2022/01/02 10:37:37;;;;;;;15.90;9.40;;;;;;;16.09;72.67;100024.69;5111908;28;20193;-70
2022/01/02 10:40:04;;;;;;;12.93;8.50;;;;;;;15.69;72.59;100021.88;5111888;28;20207;-70
2022/01/02 10:42:41;;;;;;;14.27;8.93;;;;;;;16.14;71.74;100012.22;5111791;27;20712;-69
2022/01/02 10:45:09;;;;;;;11.43;7.73;;;;;;;16.27;71.69;100017.22;5111855;28;20213;-69
2022/01/02 10:47:36;;;;;;;13.93;8.73;;;;;;;16.55;70.07;100017.53;5111851;28;20613;-69
2022/01/02 10:50:06;;;;;;;11.90;8.50;;;;;;;16.51;69.38;100019.56;5111506;28;20196;-69
2022/01/02 10:52:35;;;;;;;14.73;8.90;;;;;;;16.09;69.81;100021.31;5111522;28;20240;-69
2022/01/02 10:55:06;;;;;;;15.87;10.00;;;;;;;15.93;70.65;100019.13;5111670;28;20224;-61
2022/01/02 10:57:33;;;;;;;16.30;10.47;;;;;;;15.82;70.75;100022.53;5111548;28;20230;-69
2022/01/02 11:00:01;;;;;;;14.97;9.13;;;;;;;15.92;70.35;100025.22;5110965;28;20584;-62
2022/01/02 11:02:29;;;;;;;15.37;9.70;;;;;;;15.88;72.90;100014.31;5111595;28;20243;-61
2022/01/02 11:04:59;;;;;;;15.63;10.03;;;;;;;16.05;72.98;100007.81;5111527;28;20566;-61
2022/01/02 11:07:31;;;;;;;14.77;9.60;;;;;;;16.00;70.58;100012.53;5111434;28;20218;-70
2022/01/02 11:09:58;;;;;;;16.50;9.97;;;;;;;15.80;71.72;100002.03;5111338;28;20205;-62
2022/01/02 11:12:25;;;;;;;15.47;9.73;;;;;;;16.07;71.73;100000.78;5111138;28;20232;-69
2022/01/02 11:14:52;;;;;;;14.90;9.00;;;;;;;15.89;72.07;100003.06;5111637;28;20204;-69
2022/01/02 11:17:19;;;;;;;13.87;9.33;;;;;;;15.92;70.56;100005.41;5111449;28;20718;-61
2022/01/02 11:19:46;;;;;;;14.50;9.37;;;;;;;15.82;71.80;100000.19;5111457;28;20686;-69
2022/01/02 11:22:20;;;;;;;14.63;9.93;;;;;;;15.75;71.74;99993.03;5111438;28;20224;-60